createdAt,value
2022-10-04T00:00:13.060Z,1016.99
2022-10-04T00:01:13.039Z,1016.98
2022-10-04T00:02:13.078Z,1016.96
2022-10-04T00:03:13.092Z,1016.97
2022-10-04T00:04:12.988Z,1016.96
2022-10-04T00:05:12.989Z,1016.92
2022-10-04T00:06:12.947Z,1016.93
2022-10-04T00:07:12.935Z,1016.90
2022-10-04T00:08:12.912Z,1016.87
2022-10-04T00:09:12.892Z,1016.84
2022-10-04T00:10:12.880Z,1016.86
2022-10-04T00:11:12.859Z,1016.84
2022-10-04T00:12:12.845Z,1016.84
2022-10-04T00:13:12.821Z,1016.81
2022-10-04T00:14:12.801Z,1016.75
2022-10-04T00:15:12.781Z,1016.73
2022-10-04T00:16:12.810Z,1016.71
2022-10-04T00:17:12.745Z,1016.70
2022-10-04T00:18:12.728Z,1016.71
2022-10-04T00:19:12.708Z,1016.65
2022-10-04T00:20:12.689Z,1016.66
2022-10-04T00:21:12.690Z,1016.70
2022-10-04T00:22:12.677Z,1016.69
2022-10-04T00:23:12.641Z,1016.72
2022-10-04T00:24:12.612Z,1016.70
2022-10-04T00:25:12.594Z,1016.75
2022-10-04T00:26:12.581Z,1016.71
2022-10-04T00:27:12.563Z,1016.68
2022-10-04T00:28:12.577Z,1016.65
2022-10-04T00:29:12.524Z,1016.61
2022-10-04T00:30:12.504Z,1016.57
2022-10-04T00:31:12.535Z,1016.54
2022-10-04T00:32:12.471Z,1016.51
2022-10-04T00:33:12.455Z,1016.53
2022-10-04T00:34:12.430Z,1016.51
2022-10-04T00:35:12.413Z,1016.55
2022-10-04T00:36:12.398Z,1016.55
2022-10-04T00:37:12.395Z,1016.58
2022-10-04T00:38:12.356Z,1016.58
2022-10-04T00:39:12.341Z,1016.63
2022-10-04T00:40:12.322Z,1016.63
2022-10-04T00:41:12.304Z,1016.65
2022-10-04T00:42:12.285Z,1016.63
2022-10-04T00:43:12.265Z,1016.58
2022-10-04T00:44:12.244Z,1016.56
2022-10-04T00:45:12.227Z,1016.58
2022-10-04T00:46:12.236Z,1016.52
2022-10-04T00:47:12.188Z,1016.51
2022-10-04T00:48:12.166Z,1016.48
2022-10-04T00:49:12.155Z,1016.45
2022-10-04T00:50:12.133Z,1016.40
2022-10-04T00:51:12.118Z,1016.40
2022-10-04T00:52:12.098Z,1016.38
2022-10-04T00:53:12.102Z,1016.30
2022-10-04T00:54:12.061Z,1016.35
2022-10-04T00:55:12.038Z,1016.35
2022-10-04T00:56:12.019Z,1016.34
2022-10-04T00:57:12.009Z,1016.38
2022-10-04T00:58:11.984Z,1016.37
2022-10-04T00:59:11.964Z,1016.36
2022-10-04T01:00:11.947Z,1016.40
2022-10-04T01:01:11.986Z,1016.43
2022-10-04T01:02:11.957Z,1016.39
2022-10-04T01:03:11.899Z,1016.38
2022-10-04T01:04:11.868Z,1016.37
2022-10-04T01:05:11.859Z,1016.39
2022-10-04T01:06:11.837Z,1016.38
2022-10-04T01:07:11.819Z,1016.40
2022-10-04T01:08:11.798Z,1016.33
2022-10-04T01:09:11.801Z,1016.33
2022-10-04T01:10:11.762Z,1016.32
2022-10-04T01:11:11.742Z,1016.30
2022-10-04T01:12:11.726Z,1016.27
2022-10-04T01:13:11.701Z,1016.29
2022-10-04T01:14:11.685Z,1016.30
2022-10-04T01:15:11.668Z,1016.30
2022-10-04T01:16:11.828Z,1016.33
2022-10-04T01:17:11.632Z,1016.36
2022-10-04T01:18:11.611Z,1016.33
2022-10-04T01:19:11.595Z,1016.33
2022-10-04T01:20:11.574Z,1016.31
2022-10-04T01:21:11.560Z,1016.33
2022-10-04T01:22:11.542Z,1016.31
2022-10-04T01:23:11.517Z,1016.33
2022-10-04T01:24:11.497Z,1016.31
2022-10-04T01:25:11.499Z,1016.31
2022-10-04T01:26:11.461Z,1016.24
2022-10-04T01:27:11.446Z,1016.24
2022-10-04T01:28:11.468Z,1016.23
2022-10-04T01:29:11.410Z,1016.23
2022-10-04T01:30:11.387Z,1016.20
2022-10-04T01:31:11.430Z,1016.18
2022-10-04T01:32:11.351Z,1016.16
2022-10-04T01:33:11.332Z,1016.15
2022-10-04T01:34:11.313Z,1016.16
2022-10-04T01:35:11.295Z,1016.12
2022-10-04T01:36:11.273Z,1016.11
2022-10-04T01:37:11.254Z,1016.11
2022-10-04T01:38:11.236Z,1016.10
2022-10-04T01:39:11.218Z,1016.09
2022-10-04T01:40:11.209Z,1016.07
2022-10-04T01:41:11.204Z,1016.03
2022-10-04T01:42:11.164Z,1015.98
2022-10-04T01:43:11.144Z,1015.93
2022-10-04T01:44:11.123Z,1015.91
2022-10-04T01:45:11.112Z,1015.89
2022-10-04T01:46:11.184Z,1015.89
2022-10-04T01:47:11.078Z,1015.87
2022-10-04T01:48:11.052Z,1015.82
2022-10-04T01:49:11.031Z,1015.81
2022-10-04T01:50:15.577Z,1015.83
2022-10-04T01:51:11.000Z,1015.84
2022-10-04T01:52:10.973Z,1015.84
2022-10-04T01:53:10.958Z,1015.86
2022-10-04T01:54:10.940Z,1015.89
2022-10-04T01:55:10.924Z,1015.90
2022-10-04T01:56:10.903Z,1015.89
2022-10-04T01:57:10.903Z,1015.90
2022-10-04T01:58:10.872Z,1015.91
2022-10-04T01:59:10.852Z,1015.91
2022-10-04T02:00:10.830Z,1015.94
2022-10-04T02:01:10.885Z,1015.95
2022-10-04T02:02:10.788Z,1015.95
2022-10-04T02:03:10.774Z,1015.92
2022-10-04T02:04:10.838Z,1015.90
2022-10-04T02:05:10.734Z,1015.90
2022-10-04T02:06:10.716Z,1015.90
2022-10-04T02:07:10.698Z,1015.89
2022-10-04T02:08:10.677Z,1015.86
2022-10-04T02:09:10.656Z,1015.86
2022-10-04T02:10:10.639Z,1015.84
2022-10-04T02:11:10.622Z,1015.84
2022-10-04T02:12:10.603Z,1015.83
2022-10-04T02:13:10.602Z,1015.81
2022-10-04T02:14:10.563Z,1015.80
2022-10-04T02:15:10.547Z,1015.79
2022-10-04T02:16:10.601Z,1015.77
2022-10-04T02:17:10.649Z,1015.78
2022-10-04T02:18:10.491Z,1015.77
2022-10-04T02:19:10.472Z,1015.77
2022-10-04T02:20:10.451Z,1015.73
2022-10-04T02:21:10.440Z,1015.72
2022-10-04T02:22:10.417Z,1015.72
2022-10-04T02:23:10.398Z,1015.70
2022-10-04T02:24:10.378Z,1015.68
2022-10-04T02:25:10.358Z,1015.69
2022-10-04T02:26:10.341Z,1015.70
2022-10-04T02:27:10.322Z,1015.67
2022-10-04T02:28:10.337Z,1015.66
2022-10-04T02:29:10.303Z,1015.62
2022-10-04T02:30:10.269Z,1015.62
2022-10-04T02:31:10.311Z,1015.64
2022-10-04T02:32:10.228Z,1015.65
2022-10-04T02:33:10.209Z,1015.62
2022-10-04T02:34:10.192Z,1015.61
2022-10-04T02:35:10.173Z,1015.60
2022-10-04T02:36:10.152Z,1015.60
2022-10-04T02:37:10.131Z,1015.59
2022-10-04T02:38:10.121Z,1015.60
2022-10-04T02:39:10.099Z,1015.60
2022-10-04T02:40:10.075Z,1015.60
2022-10-04T02:41:10.060Z,1015.58
2022-10-04T02:42:10.038Z,1015.58
2022-10-04T02:43:10.019Z,1015.59
2022-10-04T02:44:10.005Z,1015.56
2022-10-04T02:45:10.004Z,1015.54
2022-10-04T02:46:10.035Z,1015.53
2022-10-04T02:47:09.952Z,1015.50
2022-10-04T02:48:09.935Z,1015.48
2022-10-04T02:49:09.910Z,1015.48
2022-10-04T02:50:09.894Z,1015.48
2022-10-04T02:51:09.877Z,1015.46
2022-10-04T02:52:09.853Z,1015.50
2022-10-04T02:53:09.833Z,1015.45
2022-10-04T02:54:09.817Z,1015.43
2022-10-04T02:55:09.795Z,1015.44
2022-10-04T02:56:09.773Z,1015.50
2022-10-04T02:57:09.760Z,1015.47
2022-10-04T02:58:09.741Z,1015.41
2022-10-04T02:59:09.723Z,1015.41
2022-10-04T03:00:09.710Z,1015.43
2022-10-04T03:01:09.772Z,1015.46
2022-10-04T03:02:09.721Z,1015.47
2022-10-04T03:03:09.649Z,1015.53
2022-10-04T03:04:09.628Z,1015.50
2022-10-04T03:05:09.608Z,1015.49
2022-10-04T03:06:09.591Z,1015.47
2022-10-04T03:07:09.573Z,1015.44
2022-10-04T03:08:09.549Z,1015.46
2022-10-04T03:09:09.534Z,1015.47
2022-10-04T03:10:09.517Z,1015.46
2022-10-04T03:11:09.492Z,1015.43
2022-10-04T03:12:09.474Z,1015.41
2022-10-04T03:13:09.456Z,1015.47
2022-10-04T03:14:09.434Z,1015.44
2022-10-04T03:15:09.419Z,1015.45
2022-10-04T03:16:09.501Z,1015.41
2022-10-04T03:17:09.404Z,1015.40
2022-10-04T03:18:09.362Z,1015.41
2022-10-04T03:19:09.343Z,1015.37
2022-10-04T03:20:09.325Z,1015.34
2022-10-04T03:21:09.301Z,1015.38
2022-10-04T03:22:09.285Z,1015.31
2022-10-04T03:23:09.264Z,1015.29
2022-10-04T03:24:09.249Z,1015.31
2022-10-04T03:25:09.241Z,1015.33
2022-10-04T03:26:09.222Z,1015.31
2022-10-04T03:27:09.203Z,1015.35
2022-10-04T03:28:09.269Z,1015.33
2022-10-04T03:29:09.153Z,1015.31
2022-10-04T03:30:09.133Z,1015.31
2022-10-04T03:31:09.147Z,1015.30
2022-10-04T03:32:09.097Z,1015.31
2022-10-04T03:33:09.093Z,1015.28
2022-10-04T03:34:09.058Z,1015.25
2022-10-04T03:35:09.038Z,1015.27
2022-10-04T03:36:09.015Z,1015.27
2022-10-04T03:37:08.997Z,1015.25
2022-10-04T03:38:08.981Z,1015.21
2022-10-04T03:39:08.962Z,1015.22
2022-10-04T03:40:08.937Z,1015.18
2022-10-04T03:41:08.921Z,1015.17
2022-10-04T03:42:08.907Z,1015.19
2022-10-04T03:43:08.887Z,1015.16
2022-10-04T03:44:08.863Z,1015.13
2022-10-04T03:45:08.843Z,1015.10
2022-10-04T03:46:08.898Z,1015.12
2022-10-04T03:47:08.808Z,1015.10
2022-10-04T03:48:08.788Z,1015.11
2022-10-04T03:49:08.785Z,1015.08
2022-10-04T03:50:08.753Z,1015.07
2022-10-04T03:51:08.735Z,1015.07
2022-10-04T03:52:08.714Z,1015.05
2022-10-04T03:53:08.694Z,1015.04
2022-10-04T03:54:08.675Z,1015.07
2022-10-04T03:55:08.663Z,1015.00
2022-10-04T03:56:08.638Z,1015.02
2022-10-04T03:57:08.614Z,1015.03
2022-10-04T03:58:08.596Z,1015.01
2022-10-04T03:59:08.578Z,1015.02
2022-10-04T04:00:08.572Z,1015.00
2022-10-04T04:01:08.601Z,1015.00
2022-10-04T04:02:08.615Z,1014.99
2022-10-04T04:03:08.505Z,1014.98
2022-10-04T04:04:08.490Z,1014.95
2022-10-04T04:05:08.482Z,1014.94
2022-10-04T04:06:08.445Z,1014.95
2022-10-04T04:07:08.426Z,1014.97
2022-10-04T04:08:08.404Z,1014.97
2022-10-04T04:09:08.386Z,1014.94
2022-10-04T04:10:10.270Z,1014.98
2022-10-04T04:11:08.349Z,1014.95
2022-10-04T04:12:08.326Z,1014.99
2022-10-04T04:13:08.312Z,1014.98
2022-10-04T04:14:08.288Z,1015.00
2022-10-04T04:15:08.274Z,1014.98
2022-10-04T04:16:08.285Z,1014.99
2022-10-04T04:17:08.232Z,1014.97
2022-10-04T04:18:08.220Z,1014.96
2022-10-04T04:19:08.194Z,1014.98
2022-10-04T04:20:08.179Z,1014.96
2022-10-04T04:21:08.187Z,1014.95
2022-10-04T04:22:08.138Z,1014.95
2022-10-04T04:23:08.120Z,1014.95
2022-10-04T04:24:08.102Z,1014.95
2022-10-04T04:25:08.080Z,1014.94
2022-10-04T04:26:08.073Z,1014.94
2022-10-04T04:27:08.040Z,1014.93
2022-10-04T04:28:08.057Z,1014.86
2022-10-04T04:29:08.006Z,1014.83
2022-10-04T04:30:07.982Z,1014.80
2022-10-04T04:31:07.966Z,1014.79
2022-10-04T04:32:07.996Z,1014.76
2022-10-04T04:33:07.924Z,1014.72
2022-10-04T04:34:07.909Z,1014.75
2022-10-04T04:35:07.894Z,1014.73
2022-10-04T04:36:07.867Z,1014.69
2022-10-04T04:37:07.866Z,1014.68
2022-10-04T04:38:07.827Z,1014.67
2022-10-04T04:39:07.810Z,1014.70
2022-10-04T04:40:07.790Z,1014.68
2022-10-04T04:41:07.772Z,1014.70
2022-10-04T04:42:07.758Z,1014.71
2022-10-04T04:43:07.736Z,1014.74
2022-10-04T04:44:07.716Z,1014.76
2022-10-04T04:45:07.695Z,1014.74
2022-10-04T04:46:26.774Z,1014.73
2022-10-04T04:47:07.658Z,1014.75
2022-10-04T04:48:07.639Z,1014.67
2022-10-04T04:49:07.620Z,1014.63
2022-10-04T04:50:07.601Z,1014.67
2022-10-04T04:51:07.577Z,1014.64
2022-10-04T04:52:07.559Z,1014.66
2022-10-04T04:53:07.561Z,1014.69
2022-10-04T04:54:07.520Z,1014.75
2022-10-04T04:55:07.498Z,1014.75
2022-10-04T04:56:10.594Z,1014.75
2022-10-04T04:57:07.458Z,1014.73
2022-10-04T04:58:07.446Z,1014.80
2022-10-04T04:59:07.431Z,1014.79
2022-10-04T05:00:07.405Z,1014.82
2022-10-04T05:01:07.510Z,1014.82
2022-10-04T05:02:07.448Z,1014.82
2022-10-04T05:03:07.347Z,1014.86
2022-10-04T05:04:07.325Z,1014.85
2022-10-04T05:05:07.309Z,1014.87
2022-10-04T05:06:07.287Z,1014.88
2022-10-04T05:07:07.289Z,1014.84
2022-10-04T05:08:07.248Z,1014.83
2022-10-04T05:09:07.247Z,1014.83
2022-10-04T05:10:07.216Z,1014.82
2022-10-04T05:11:07.193Z,1014.80
2022-10-04T05:12:07.177Z,1014.80
2022-10-04T05:13:07.152Z,1014.78
2022-10-04T05:14:07.135Z,1014.78
2022-10-04T05:15:07.173Z,1014.77
2022-10-04T05:16:07.164Z,1014.77
2022-10-04T05:17:07.073Z,1014.79
2022-10-04T05:18:07.059Z,1014.81
2022-10-04T05:19:07.041Z,1014.77
2022-10-04T05:20:07.023Z,1014.77
2022-10-04T05:21:06.997Z,1014.83
2022-10-04T05:22:06.981Z,1014.78
2022-10-04T05:23:06.963Z,1014.76
2022-10-04T05:24:06.944Z,1014.77
2022-10-04T05:25:06.938Z,1014.77
2022-10-04T05:26:06.901Z,1014.76
2022-10-04T05:27:06.878Z,1014.78
2022-10-04T05:28:07.009Z,1014.75
2022-10-04T05:29:06.845Z,1014.75
2022-10-04T05:30:06.827Z,1014.72
2022-10-04T05:31:06.803Z,1014.70
2022-10-04T05:32:06.850Z,1014.70
2022-10-04T05:33:06.764Z,1014.68
2022-10-04T05:34:06.741Z,1014.69
2022-10-04T05:35:06.723Z,1014.67
2022-10-04T05:36:06.714Z,1014.65
2022-10-04T05:37:06.687Z,1014.65
2022-10-04T05:38:06.663Z,1014.69
2022-10-04T05:39:06.648Z,1014.66
2022-10-04T05:40:06.626Z,1014.72
2022-10-04T05:41:06.628Z,1014.68
2022-10-04T05:42:06.593Z,1014.69
2022-10-04T05:43:06.572Z,1014.68
2022-10-04T05:44:06.550Z,1014.70
2022-10-04T05:45:06.530Z,1014.70
2022-10-04T05:46:06.589Z,1014.73
2022-10-04T05:47:06.489Z,1014.73
2022-10-04T05:48:06.472Z,1014.73
2022-10-04T05:49:06.449Z,1014.71
2022-10-04T05:50:06.428Z,1014.71
2022-10-04T05:51:06.416Z,1014.73
2022-10-04T05:52:06.398Z,1014.69
2022-10-04T05:53:06.375Z,1014.73
2022-10-04T05:54:06.356Z,1014.77
2022-10-04T05:55:06.333Z,1014.79
2022-10-04T05:56:06.320Z,1014.80
2022-10-04T05:57:06.326Z,1014.81
2022-10-04T05:58:06.271Z,1014.82
2022-10-04T05:59:06.253Z,1014.77
2022-10-04T06:00:06.237Z,1014.77
2022-10-04T06:01:06.278Z,1014.72
2022-10-04T06:02:06.228Z,1014.72
2022-10-04T06:03:06.179Z,1014.72
2022-10-04T06:04:06.157Z,1014.73
2022-10-04T06:05:06.143Z,1014.75
2022-10-04T06:06:06.118Z,1014.78
2022-10-04T06:07:06.095Z,1014.78
2022-10-04T06:08:06.082Z,1014.76
2022-10-04T06:09:06.062Z,1014.81
2022-10-04T06:10:06.042Z,1014.79
2022-10-04T06:11:06.023Z,1014.82
2022-10-04T06:12:06.005Z,1014.80
2022-10-04T06:13:06.001Z,1014.81
2022-10-04T06:14:05.963Z,1014.82
2022-10-04T06:15:05.943Z,1014.81
2022-10-04T06:16:05.923Z,1014.85
2022-10-04T06:17:06.024Z,1014.83
2022-10-04T06:18:05.887Z,1014.89
2022-10-04T06:19:05.869Z,1014.88
2022-10-04T06:20:05.848Z,1014.89
2022-10-04T06:21:05.827Z,1014.89
2022-10-04T06:22:05.814Z,1014.87
2022-10-04T06:23:05.791Z,1014.84
2022-10-04T06:24:05.768Z,1014.83
2022-10-04T06:25:05.753Z,1014.78
2022-10-04T06:26:05.733Z,1014.82
2022-10-04T06:27:05.713Z,1014.80
2022-10-04T06:28:05.710Z,1014.81
2022-10-04T06:29:05.700Z,1014.85
2022-10-04T06:30:05.657Z,1014.83
2022-10-04T06:31:05.673Z,1014.85
2022-10-04T06:32:05.616Z,1014.83
2022-10-04T06:33:05.597Z,1014.85
2022-10-04T06:34:05.580Z,1014.85
2022-10-04T06:35:05.559Z,1014.83
2022-10-04T06:36:05.540Z,1014.80
2022-10-04T06:37:05.523Z,1014.75
2022-10-04T06:38:05.503Z,1014.75
2022-10-04T06:39:05.483Z,1014.73
2022-10-04T06:40:05.466Z,1014.79
2022-10-04T06:41:05.445Z,1014.75
2022-10-04T06:42:05.433Z,1014.77
2022-10-04T06:43:05.411Z,1014.77
2022-10-04T06:44:05.402Z,1014.75
2022-10-04T06:45:05.394Z,1014.77
2022-10-04T06:46:05.429Z,1014.77
2022-10-04T06:47:05.337Z,1014.79
2022-10-04T06:48:05.321Z,1014.85
2022-10-04T06:49:05.310Z,1014.85
2022-10-04T06:50:05.285Z,1014.81
2022-10-04T06:51:05.271Z,1014.81
2022-10-04T06:52:05.249Z,1014.85
2022-10-04T06:53:05.230Z,1014.93
2022-10-04T06:54:05.217Z,1014.90
2022-10-04T06:55:05.198Z,1014.87
2022-10-04T06:56:05.183Z,1014.89
2022-10-04T06:57:05.174Z,1015.04
2022-10-04T06:58:05.150Z,1015.08
2022-10-04T06:59:05.134Z,1015.13
2022-10-04T07:00:05.116Z,1015.00
2022-10-04T07:01:05.182Z,1015.09
2022-10-04T07:02:05.154Z,1015.07
2022-10-04T07:03:05.074Z,1015.05
2022-10-04T07:04:05.062Z,1015.12
2022-10-04T07:05:09.375Z,1015.14
2022-10-04T07:06:05.054Z,1015.18
2022-10-04T07:07:05.015Z,1015.25
2022-10-04T07:08:05.006Z,1015.22
2022-10-04T07:09:04.990Z,1015.19
2022-10-04T07:10:04.981Z,1015.20
2022-10-04T07:11:07.302Z,1015.17
2022-10-04T07:12:04.950Z,1015.09
2022-10-04T07:13:04.938Z,1015.05
2022-10-04T07:14:04.924Z,1015.11
2022-10-04T07:15:04.912Z,1015.09
2022-10-04T07:16:05.028Z,1015.04
2022-10-04T07:17:04.919Z,1015.06
2022-10-04T07:18:04.876Z,1015.08
2022-10-04T07:19:04.860Z,1015.17
2022-10-04T07:20:04.846Z,1015.24
2022-10-04T07:21:04.835Z,1015.10
2022-10-04T07:22:04.823Z,1015.08
2022-10-04T07:23:04.811Z,1015.08
2022-10-04T07:24:04.792Z,1015.05
2022-10-04T07:25:04.780Z,1015.07
2022-10-04T07:26:04.769Z,1015.13
2022-10-04T07:27:04.755Z,1015.13
2022-10-04T07:28:04.771Z,1015.10
2022-10-04T07:29:04.730Z,1015.09
2022-10-04T07:30:04.716Z,1015.14
2022-10-04T07:31:04.801Z,1015.22
2022-10-04T07:32:04.692Z,1015.24
2022-10-04T07:33:04.696Z,1015.21
2022-10-04T07:34:04.661Z,1015.28
2022-10-04T07:35:04.654Z,1015.22
2022-10-04T07:36:04.640Z,1015.22
2022-10-04T07:37:04.627Z,1015.29
2022-10-04T07:38:04.611Z,1015.26
2022-10-04T07:39:04.598Z,1015.26
2022-10-04T07:40:04.591Z,1015.27
2022-10-04T07:41:04.572Z,1015.26
2022-10-04T07:42:04.563Z,1015.30
2022-10-04T07:43:04.547Z,1015.36
2022-10-04T07:44:04.541Z,1015.41
2022-10-04T07:45:04.521Z,1015.41
2022-10-04T07:46:04.523Z,1015.40
2022-10-04T07:47:04.494Z,1015.44
2022-10-04T07:48:04.481Z,1015.37
2022-10-04T07:49:04.501Z,1015.41
2022-10-04T07:50:04.460Z,1015.40
2022-10-04T07:51:04.447Z,1015.35
2022-10-04T07:52:04.438Z,1015.28
2022-10-04T07:53:08.650Z,1015.42
2022-10-04T07:54:04.415Z,1015.42
2022-10-04T07:55:04.417Z,1015.41
2022-10-04T07:56:04.389Z,1015.45
2022-10-04T07:57:04.378Z,1015.44
2022-10-04T07:58:04.365Z,1015.45
2022-10-04T07:59:04.353Z,1015.44
2022-10-04T08:00:04.345Z,1015.41
2022-10-04T08:01:04.336Z,1015.36
2022-10-04T08:02:04.395Z,1015.39
2022-10-04T08:03:04.388Z,1015.37
2022-10-04T08:04:04.294Z,1015.34
2022-10-04T08:05:04.305Z,1015.32
2022-10-04T08:06:04.271Z,1015.37
2022-10-04T08:07:04.255Z,1015.41
2022-10-04T08:08:04.253Z,1015.41
2022-10-04T08:09:04.232Z,1015.43
2022-10-04T08:10:04.224Z,1015.44
2022-10-04T08:11:04.212Z,1015.35
2022-10-04T08:12:04.198Z,1015.41
2022-10-04T08:13:04.199Z,1015.61
2022-10-04T08:14:04.176Z,1015.55
2022-10-04T08:15:04.157Z,1015.40
2022-10-04T08:16:04.361Z,1015.38
2022-10-04T08:17:04.139Z,1015.36
2022-10-04T08:18:04.124Z,1015.37
2022-10-04T08:19:04.118Z,1015.34
2022-10-04T08:20:04.106Z,1015.32
2022-10-04T08:21:04.116Z,1015.73
2022-10-04T08:22:04.078Z,1015.87
2022-10-04T08:23:04.066Z,1015.93
2022-10-04T08:24:04.058Z,1015.97
2022-10-04T08:25:04.043Z,1015.87
2022-10-04T08:26:04.039Z,1015.88
2022-10-04T08:27:04.025Z,1015.94
2022-10-04T08:28:04.082Z,1016.02
2022-10-04T08:29:04.005Z,1015.95
2022-10-04T08:30:03.997Z,1015.96
2022-10-04T08:31:04.036Z,1016.03
2022-10-04T08:32:05.388Z,1015.99
2022-10-04T08:33:03.968Z,1016.01
2022-10-04T08:34:03.963Z,1016.03
2022-10-04T08:35:03.950Z,1016.08
2022-10-04T08:36:03.948Z,1016.01
2022-10-04T08:37:03.962Z,1015.99
2022-10-04T08:38:03.936Z,1016.00
2022-10-04T08:39:03.941Z,1015.92
2022-10-04T08:40:03.928Z,1015.96
2022-10-04T08:41:03.916Z,1015.97
2022-10-04T08:42:03.917Z,1015.99
2022-10-04T08:43:03.904Z,1016.02
2022-10-04T08:44:03.901Z,1016.12
2022-10-04T08:45:03.899Z,1016.04
2022-10-04T08:46:03.944Z,1016.02
2022-10-04T08:47:03.896Z,1015.98
2022-10-04T08:48:03.887Z,1015.86
2022-10-04T08:49:03.889Z,1015.84
2022-10-04T08:50:03.899Z,1015.84
2022-10-04T08:51:03.879Z,1015.85
2022-10-04T08:52:03.874Z,1015.89
2022-10-04T08:53:07.418Z,1015.96
2022-10-04T08:54:03.880Z,1015.96
2022-10-04T08:55:03.868Z,1015.97
2022-10-04T08:56:03.866Z,1015.95
2022-10-04T08:57:03.866Z,1015.95
2022-10-04T08:58:03.863Z,1015.88
2022-10-04T08:59:03.861Z,1015.86
2022-10-04T09:00:03.855Z,1015.86
2022-10-04T09:01:03.899Z,1015.76
2022-10-04T09:02:03.866Z,1015.69
2022-10-04T09:03:03.955Z,1015.60
2022-10-04T09:04:03.847Z,1015.67
2022-10-04T09:05:03.844Z,1015.74
2022-10-04T09:06:03.851Z,1015.67
2022-10-04T09:07:03.841Z,1015.64
2022-10-04T09:08:03.840Z,1015.67
2022-10-04T09:09:03.868Z,1015.68
2022-10-04T09:10:03.836Z,1015.76
2022-10-04T09:11:03.830Z,1015.72
2022-10-04T09:12:03.837Z,1015.71
2022-10-04T09:13:03.827Z,1015.73
2022-10-04T09:14:03.825Z,1015.63
2022-10-04T09:15:03.828Z,1015.63
2022-10-04T09:16:03.879Z,1015.61
2022-10-04T09:17:03.814Z,1015.59
2022-10-04T09:18:03.817Z,1015.60
2022-10-04T09:19:03.813Z,1015.67
2022-10-04T09:20:26.364Z,1015.67
2022-10-04T09:21:03.804Z,1015.65
2022-10-04T09:22:03.804Z,1015.55
2022-10-04T09:23:06.358Z,1015.44
2022-10-04T09:24:03.800Z,1015.37
2022-10-04T09:25:03.839Z,1015.39
2022-10-04T09:26:03.790Z,1015.41
2022-10-04T09:27:03.792Z,1015.41
2022-10-04T09:28:03.822Z,1015.36
2022-10-04T09:29:05.134Z,1015.32
2022-10-04T09:30:03.779Z,1015.35
2022-10-04T09:31:03.819Z,1015.37
2022-10-04T09:32:03.767Z,1015.34
2022-10-04T09:33:03.760Z,1015.33
2022-10-04T09:34:03.769Z,1015.36
2022-10-04T09:35:03.761Z,1015.39
2022-10-04T09:36:03.746Z,1015.38
2022-10-04T09:37:03.743Z,1015.36
2022-10-04T09:38:03.737Z,1015.32
2022-10-04T09:39:28.603Z,1015.32
2022-10-04T09:40:03.730Z,1015.25
2022-10-04T09:41:03.807Z,1015.04
2022-10-04T09:42:03.718Z,1014.88
2022-10-04T09:43:03.716Z,1014.92
2022-10-04T09:44:03.712Z,1014.88
2022-10-04T09:45:03.704Z,1014.86
2022-10-04T09:46:03.779Z,1014.82
2022-10-04T09:47:03.697Z,1014.83
2022-10-04T09:48:03.684Z,1014.84
2022-10-04T09:49:03.683Z,1014.77
2022-10-04T09:50:03.672Z,1014.77
2022-10-04T09:51:03.670Z,1014.85
2022-10-04T09:52:03.661Z,1014.81
2022-10-04T09:53:03.666Z,1014.82
2022-10-04T09:54:03.655Z,1014.83
2022-10-04T09:55:03.643Z,1014.82
2022-10-04T09:56:03.637Z,1014.80
2022-10-04T09:57:03.697Z,1014.80
2022-10-04T09:58:03.623Z,1014.80
2022-10-04T09:59:03.618Z,1014.79
2022-10-04T10:00:03.611Z,1014.78
2022-10-04T10:01:03.602Z,1014.72
2022-10-04T10:02:03.629Z,1014.72
2022-10-04T10:03:03.733Z,1014.67
2022-10-04T10:04:03.586Z,1014.72
2022-10-04T10:05:03.571Z,1014.69
2022-10-04T10:06:03.579Z,1014.65
2022-10-04T10:07:03.558Z,1014.66
2022-10-04T10:08:03.549Z,1014.64
2022-10-04T10:09:03.547Z,1014.65
2022-10-04T10:10:03.535Z,1014.65
2022-10-04T10:11:03.529Z,1014.66
2022-10-04T10:12:03.519Z,1014.66
2022-10-04T10:13:03.532Z,1014.65
2022-10-04T10:14:03.511Z,1014.67
2022-10-04T10:15:03.501Z,1014.69
2022-10-04T10:16:03.526Z,1014.69
2022-10-04T10:17:03.480Z,1014.68
2022-10-04T10:18:03.472Z,1014.68
2022-10-04T10:19:03.462Z,1014.66
2022-10-04T10:20:03.455Z,1014.64
2022-10-04T10:21:03.448Z,1014.63
2022-10-04T10:22:03.446Z,1014.64
2022-10-04T10:23:03.430Z,1014.62
2022-10-04T10:24:03.426Z,1014.61
2022-10-04T10:25:03.417Z,1014.66
2022-10-04T10:26:03.407Z,1014.67
2022-10-04T10:27:03.402Z,1014.63
2022-10-04T10:28:03.470Z,1014.64
2022-10-04T10:29:03.465Z,1014.63
2022-10-04T10:30:03.378Z,1014.61
2022-10-04T10:31:03.400Z,1014.60
2022-10-04T10:32:03.364Z,1014.59
2022-10-04T10:33:03.348Z,1014.56
2022-10-04T10:34:03.342Z,1014.57
2022-10-04T10:35:03.331Z,1014.59
2022-10-04T10:36:03.324Z,1014.56
2022-10-04T10:37:03.315Z,1014.56
2022-10-04T10:38:04.756Z,1014.51
2022-10-04T10:39:03.300Z,1014.55
2022-10-04T10:40:03.300Z,1014.54
2022-10-04T10:41:03.284Z,1014.52
2022-10-04T10:42:03.276Z,1014.58
2022-10-04T10:43:03.274Z,1014.62
2022-10-04T10:44:03.252Z,1014.57
2022-10-04T10:45:03.392Z,1014.58
2022-10-04T10:46:03.292Z,1014.54
2022-10-04T10:47:03.276Z,1014.59
2022-10-04T10:48:03.220Z,1014.58
2022-10-04T10:49:03.220Z,1014.60
2022-10-04T10:50:03.207Z,1014.58
2022-10-04T10:51:03.195Z,1014.59
2022-10-04T10:52:03.182Z,1014.55
2022-10-04T10:53:03.169Z,1014.58
2022-10-04T10:54:03.166Z,1014.56
2022-10-04T10:55:03.156Z,1014.54
2022-10-04T10:56:03.146Z,1014.55
2022-10-04T10:57:03.136Z,1014.54
2022-10-04T10:58:03.129Z,1014.50
2022-10-04T10:59:03.118Z,1014.52
2022-10-04T11:00:03.110Z,1014.55
2022-10-04T11:01:03.120Z,1014.56
2022-10-04T11:02:03.211Z,1014.56
2022-10-04T11:03:12.673Z,1014.57
2022-10-04T11:04:03.109Z,1014.54
2022-10-04T11:05:03.065Z,1014.54
2022-10-04T11:06:03.067Z,1014.54
2022-10-04T11:07:03.046Z,1014.54
2022-10-04T11:08:03.034Z,1014.52
2022-10-04T11:09:03.024Z,1014.49
2022-10-04T11:10:03.013Z,1014.46
2022-10-04T11:11:03.018Z,1014.42
2022-10-04T11:12:02.995Z,1014.40
2022-10-04T11:13:02.990Z,1014.41
2022-10-04T11:14:02.986Z,1014.35
2022-10-04T11:15:02.971Z,1014.28
2022-10-04T11:16:03.068Z,1014.25
2022-10-04T11:17:02.971Z,1014.27
2022-10-04T11:18:02.939Z,1014.27
2022-10-04T11:19:02.929Z,1014.30
2022-10-04T11:20:02.924Z,1014.27
2022-10-04T11:21:02.910Z,1014.28
2022-10-04T11:22:02.901Z,1014.27
2022-10-04T11:23:02.887Z,1014.26
2022-10-04T11:24:02.877Z,1014.22
2022-10-04T11:25:02.865Z,1014.24
2022-10-04T11:26:02.857Z,1014.17
2022-10-04T11:27:02.846Z,1014.17
2022-10-04T11:28:02.896Z,1014.19
2022-10-04T11:29:02.830Z,1014.19
2022-10-04T11:30:02.823Z,1014.19
2022-10-04T11:31:02.902Z,1014.14
2022-10-04T11:32:02.801Z,1014.12
2022-10-04T11:33:02.904Z,1014.10
2022-10-04T11:34:02.794Z,1014.06
2022-10-04T11:35:02.794Z,1014.03
2022-10-04T11:36:02.772Z,1014.00
2022-10-04T11:37:02.755Z,1013.98
2022-10-04T11:38:02.746Z,1014.02
2022-10-04T11:39:02.744Z,1013.99
2022-10-04T11:40:02.719Z,1013.93
2022-10-04T11:41:02.705Z,1013.94
2022-10-04T11:42:02.700Z,1013.94
2022-10-04T11:43:02.691Z,1013.94
2022-10-04T11:44:02.677Z,1013.95
2022-10-04T11:45:02.676Z,1013.92
2022-10-04T11:46:05.276Z,1013.90
2022-10-04T11:47:02.723Z,1013.90
2022-10-04T11:48:02.645Z,1013.87
2022-10-04T11:49:02.645Z,1013.87
2022-10-04T11:50:02.616Z,1013.95
2022-10-04T11:51:02.605Z,1013.96
2022-10-04T11:52:02.916Z,1013.89
2022-10-04T11:53:02.584Z,1013.90
2022-10-04T11:54:02.575Z,1013.93
2022-10-04T11:55:02.565Z,1013.93
2022-10-04T11:56:02.556Z,1013.92
2022-10-04T11:57:02.542Z,1013.90
2022-10-04T11:58:02.536Z,1013.88
2022-10-04T11:59:02.528Z,1013.87
2022-10-04T12:00:02.520Z,1013.87
2022-10-04T12:01:02.506Z,1013.89
2022-10-04T12:02:02.506Z,1013.85
2022-10-04T12:03:02.485Z,1013.79
2022-10-04T12:04:02.604Z,1013.78
2022-10-04T12:05:02.483Z,1013.79